Airfield :







YOU CAN JOIN US ON...

 
LOGIN :

Register | Disclaimer

   EN    FR    IT 

 









Legend :    VFR   Marginal VFR   IFR   Intensive IFR   Very Intensive IFR
Visi :
Ceiling :
>= 8 km
>= 3000ft
5 to 8 km
1000 to 3000 ft
1500m to 5 km
500 to 1000 ft
800 to 1500m
200 to 500 ft
< 800m
< 200 ft
Symbols :   Thunderstorms  Fog  Heavy snow  Heavy precipitations  Wind > 20 kt






- Airport Elevation : 237 ft
- IATA code : BQN


TJBQ - Rafael Hernandez

CURRENT METAR :
  • 231650Z 08018G22KT 10SM SCT028 30/22 A3009

EXPIRED METARs :
  • 231550Z 08017G20KT 10SM SCT026 BKN032 30/22 A3010
  • 231450Z 07014G19KT 10SM SCT026 29/22 A3011

TAF TJBQ
Valid from the 23 at 12:00 until the 24 at 12:00 UTC


231140Z 2312/2412 10013KT P6SM FEW025
FM231400 08020G30KT P6SM SCT035
FM232300 09012KT P6SM FEW025 AMD NOT SKED 2402/2411
TJZS FIR / North America



MET'MAP, your aeronautical weather chart ! - Copyright ORBIFLY December 2007 - Disclaimer

ORBIFLY MET'MAP TEAM :

Programming & Development : Alexandra Zaïnal
Concept & original design : Baudouin d'Aumeries
Assistance for programming : Marc-Olivier Méhu
Technical & hardware support : Manuel Goepfert

Contact : metmap@orbifly.com




SOURCES & CREDITS :

   NOAA